Time;durP1;ratioP1;P1;durP2;ratioP2;P2;SDS_P1;SDS_P2;PMS_P1;PMS_P2;Temp;Humidity;BMP_temperature;BMP_pressure;BME280_temperature;BME280_humidity;BME280_pressure;Samples;Min_cycle;Max_cycle;Signal;HPM_P1;HPM_P2
2022/10/19 00:01:38;;;;;;;4.57;3.70;;;;;;;14.79;100.00;97514.22;4981294;28;20447;-67
2022/10/19 00:04:03;;;;;;;9.30;3.67;;;;;;;14.78;100.00;97520.88;4979808;28;20046;-64
2022/10/19 00:06:34;;;;;;;5.93;4.25;;;;;;;14.73;100.00;97524.00;4981395;28;20052;-68
2022/10/19 00:09:03;;;;;;;8.50;3.95;;;;;;;14.67;100.00;97522.72;4980926;28;20251;-67
2022/10/19 00:11:30;;;;;;;7.60;4.32;;;;;;;14.61;100.00;97521.47;5005522;28;20066;-67
2022/10/19 00:13:56;;;;;;;9.10;4.60;;;;;;;14.59;100.00;97530.09;4984189;28;20042;-67
2022/10/19 00:16:24;;;;;;;10.90;4.93;;;;;;;14.57;100.00;97526.91;4966527;28;20523;-66
2022/10/19 00:18:49;;;;;;;6.65;5.47;;;;;;;14.56;100.00;97521.75;4977138;28;20125;-67
2022/10/19 00:21:17;;;;;;;9.68;5.18;;;;;;;14.43;100.00;97523.94;4968330;28;20138;-67
2022/10/19 00:23:44;;;;;;;9.77;4.90;;;;;;;14.38;100.00;97530.56;4974626;28;20482;-67
2022/10/19 00:26:10;;;;;;;11.73;6.10;;;;;;;14.33;100.00;97520.66;4981473;28;20050;-65
2022/10/19 00:28:36;;;;;;;12.75;6.40;;;;;;;14.18;100.00;97515.31;4995751;28;20046;-66
2022/10/19 00:31:06;;;;;;;9.23;5.47;;;;;;;14.09;100.00;97519.09;4994330;28;20052;-66
2022/10/19 00:33:32;;;;;;;7.72;5.10;;;;;;;13.94;100.00;97525.56;4971839;28;20046;-66
2022/10/19 00:35:58;;;;;;;7.65;5.60;;;;;;;13.82;100.00;97514.72;4961726;28;20042;-66
2022/10/19 00:38:23;;;;;;;14.45;7.95;;;;;;;13.89;100.00;97512.88;4958162;28;20957;-66
2022/10/19 00:40:49;;;;;;;9.77;6.55;;;;;;;13.80;100.00;97509.59;4964629;28;20043;-68
2022/10/19 00:43:17;;;;;;;13.13;7.30;;;;;;;13.70;100.00;97508.25;4960866;28;20068;-68
2022/10/19 00:45:42;;;;;;;14.68;8.75;;;;;;;13.84;100.00;97513.19;4966443;28;20050;-67
2022/10/19 00:48:11;;;;;;;12.35;9.35;;;;;;;13.88;100.00;97507.75;4968512;28;20053;-67
2022/10/19 00:50:36;;;;;;;15.93;9.52;;;;;;;13.92;100.00;97498.38;4982892;28;20048;-67
2022/10/19 00:53:02;;;;;;;17.38;10.90;;;;;;;14.02;100.00;97499.72;4973119;28;20043;-69
2022/10/19 00:55:27;;;;;;;26.70;11.60;;;;;;;14.02;100.00;97501.69;4969877;28;20383;-67
2022/10/19 00:57:53;;;;;;;18.45;11.23;;;;;;;14.07;100.00;97496.66;4981654;28;20049;-67
2022/10/19 01:00:19;;;;;;;20.25;11.20;;;;;;;14.14;100.00;97495.97;4973303;28;20137;-67
2022/10/19 01:02:45;;;;;;;19.58;11.50;;;;;;;14.14;100.00;97493.22;4966676;28;20046;-67
2022/10/19 01:05:11;;;;;;;16.33;12.00;;;;;;;14.16;100.00;97485.38;4974398;28;20458;-67
2022/10/19 01:07:36;;;;;;;16.17;11.48;;;;;;;14.14;100.00;97491.25;4981320;28;20046;-67
2022/10/19 01:10:03;;;;;;;21.90;11.55;;;;;;;14.17;100.00;97483.41;4980154;28;20088;-67
2022/10/19 01:12:51;;;;;;;22.40;12.68;;;;;;;14.21;100.00;97481.50;4981311;28;20046;-67
2022/10/19 01:15:35;;;;;;;22.38;12.38;;;;;;;14.11;100.00;97474.66;4964205;28;20403;-67
2022/10/19 01:18:12;;;;;;;28.33;12.65;;;;;;;14.05;100.00;97478.91;4980348;28;20466;-67
2022/10/19 01:20:49;;;;;;;20.30;12.05;;;;;;;13.98;100.00;97473.28;4996213;28;20037;-67
2022/10/19 01:23:42;;;;;;;19.65;12.75;;;;;;;13.88;100.00;97471.94;4988036;28;20152;-67
2022/10/19 01:26:10;;;;;;;20.80;12.73;;;;;;;13.80;100.00;97475.75;4994765;28;20125;-67
2022/10/19 01:29:13;;;;;;;25.73;13.13;;;;;;;13.74;100.00;97476.06;4993182;28;20050;-68
2022/10/19 01:32:03;;;;;;;24.23;13.77;;;;;;;13.74;100.00;97470.56;4971978;28;20047;-68
2022/10/19 01:34:52;;;;;;;22.90;12.88;;;;;;;13.73;100.00;97473.69;4979921;28;20071;-68
2022/10/19 01:37:59;;;;;;;23.35;14.50;;;;;;;13.65;100.00;97466.47;4976436;28;20039;-67
2022/10/19 01:40:52;;;;;;;22.08;12.85;;;;;;;13.78;100.00;97467.88;4951417;28;20051;-67
2022/10/19 01:43:27;;;;;;;20.45;12.73;;;;;;;13.74;100.00;97470.56;4973713;28;20061;-66
2022/10/19 01:46:13;;;;;;;19.58;13.40;;;;;;;13.69;100.00;97457.09;4975056;28;20042;-67
2022/10/19 01:48:43;;;;;;;18.70;12.48;;;;;;;13.63;100.00;97457.78;4976448;28;20042;-67
2022/10/19 01:51:18;;;;;;;22.27;14.50;;;;;;;13.55;100.00;97452.16;4977755;28;20516;-66
2022/10/19 01:53:48;;;;;;;19.08;12.95;;;;;;;13.61;100.00;97449.09;4980040;28;20043;-66
2022/10/19 01:56:18;;;;;;;24.05;13.88;;;;;;;13.57;100.00;97454.53;4973297;28;20125;-66
2022/10/19 01:58:45;;;;;;;21.52;12.95;;;;;;;13.53;100.00;97457.25;4984692;28;20038;-66
2022/10/19 02:01:15;;;;;;;20.50;14.25;;;;;;;13.47;100.00;97455.97;4980942;28;20042;-66
2022/10/19 02:03:41;;;;;;;19.88;12.57;;;;;;;13.52;100.00;97450.16;4983653;28;20125;-66
2022/10/19 02:06:09;;;;;;;23.10;13.65;;;;;;;13.43;100.00;97455.09;4978871;28;20177;-65
2022/10/19 02:08:43;;;;;;;20.10;13.10;;;;;;;13.31;100.00;97450.59;4976191;28;20054;-65
2022/10/19 02:11:09;;;;;;;22.48;14.15;;;;;;;13.28;100.00;97448.53;4979936;28;20049;-65
2022/10/19 02:13:35;;;;;;;23.83;14.75;;;;;;;13.24;100.00;97450.41;4984136;28;20042;-66
2022/10/19 02:16:05;;;;;;;25.90;14.73;;;;;;;13.31;100.00;97453.34;4983959;28;20499;-66
2022/10/19 02:18:35;;;;;;;21.65;13.73;;;;;;;13.34;100.00;97449.84;4974537;28;20509;-65
2022/10/19 02:21:04;;;;;;;26.65;14.63;;;;;;;13.26;100.00;97453.59;4979055;28;20081;-66
2022/10/19 02:23:29;;;;;;;18.00;13.20;;;;;;;13.31;100.00;97444.28;4983550;28;20400;-65
2022/10/19 02:25:56;;;;;;;20.80;13.57;;;;;;;13.37;100.00;97445.56;4983865;28;20039;-67
2022/10/19 02:28:22;;;;;;;24.67;13.18;;;;;;;13.28;100.00;97445.78;4967528;28;20557;-67
2022/10/19 02:30:48;;;;;;;25.48;13.30;;;;;;;13.16;100.00;97446.75;4978572;28;20133;-66
2022/10/19 02:33:14;;;;;;;18.67;12.70;;;;;;;13.05;100.00;97440.25;4983611;28;20137;-66
2022/10/19 02:35:40;;;;;;;20.90;11.00;;;;;;;12.92;100.00;97444.34;4993628;28;20057;-67
2022/10/19 02:38:09;;;;;;;14.35;9.20;;;;;;;12.75;100.00;97446.38;4978545;28;20487;-66
2022/10/19 02:40:42;;;;;;;14.00;8.43;;;;;;;12.51;100.00;97436.44;4983345;28;20049;-68
2022/10/19 02:43:13;;;;;;;13.65;7.55;;;;;;;12.40;100.00;97438.19;4968084;28;20297;-67
2022/10/19 02:45:47;;;;;;;13.27;7.05;;;;;;;12.34;100.00;97439.66;4961240;28;20589;-67
2022/10/19 02:48:19;;;;;;;15.10;6.97;;;;;;;12.30;100.00;97438.75;4956971;28;20041;-67
2022/10/19 02:50:46;;;;;;;16.20;7.53;;;;;;;12.24;100.00;97435.50;4971366;28;20043;-67
2022/10/19 02:53:13;;;;;;;12.68;6.65;;;;;;;12.12;100.00;97433.69;4976175;28;20043;-67
2022/10/19 02:55:39;;;;;;;14.10;6.88;;;;;;;12.06;100.00;97429.63;4977381;28;20129;-67
2022/10/19 02:58:04;;;;;;;15.30;6.45;;;;;;;12.01;100.00;97432.63;4971766;28;20042;-67
2022/10/19 03:00:30;;;;;;;10.35;6.10;;;;;;;11.95;100.00;97429.38;4984326;28;20522;-67
2022/10/19 03:02:55;;;;;;;16.77;7.18;;;;;;;11.75;100.00;97430.44;4984047;28;20587;-67
2022/10/19 03:05:21;;;;;;;13.77;6.88;;;;;;;11.63;100.00;97428.59;4968293;28;20753;-66
2022/10/19 03:07:46;;;;;;;13.85;6.43;;;;;;;11.48;100.00;97433.75;4977467;28;20045;-65
2022/10/19 03:10:12;;;;;;;8.60;5.85;;;;;;;11.33;100.00;97428.28;4979056;28;20365;-66
2022/10/19 03:12:37;;;;;;;12.02;6.90;;;;;;;11.32;100.00;97423.94;4984405;28;20050;-66
2022/10/19 03:15:03;;;;;;;13.02;7.28;;;;;;;11.24;100.00;97437.47;4980765;28;20042;-66
2022/10/19 03:17:29;;;;;;;12.43;7.80;;;;;;;11.24;100.00;97434.72;4981198;28;20047;-65
2022/10/19 03:19:54;;;;;;;13.73;8.80;;;;;;;11.08;100.00;97433.91;4970752;28;20073;-65
2022/10/19 03:22:20;;;;;;;18.17;9.43;;;;;;;10.91;100.00;97432.28;4976407;28;20786;-65
2022/10/19 03:24:45;;;;;;;20.05;9.85;;;;;;;10.84;100.00;97432.09;4983745;28;20074;-67
2022/10/19 03:27:11;;;;;;;16.35;8.65;;;;;;;10.73;100.00;97433.75;4978653;28;20586;-67
2022/10/19 03:29:36;;;;;;;15.85;9.05;;;;;;;10.74;100.00;97432.63;4982238;28;20408;-66
2022/10/19 03:32:02;;;;;;;10.18;7.82;;;;;;;10.82;100.00;97432.47;4981817;28;20050;-67
2022/10/19 03:34:27;;;;;;;13.07;8.95;;;;;;;10.68;100.00;97434.81;4967048;28;20135;-66
2022/10/19 03:36:53;;;;;;;11.90;8.77;;;;;;;10.70;100.00;97430.56;4971777;28;20070;-66
2022/10/19 03:39:18;;;;;;;14.30;10.48;;;;;;;10.76;100.00;97427.56;4976747;28;20046;-66
2022/10/19 03:41:44;;;;;;;13.45;9.13;;;;;;;10.84;100.00;97426.59;4983970;28;20491;-67
2022/10/19 03:44:10;;;;;;;15.75;10.38;;;;;;;10.77;100.00;97429.97;4977525;28;20053;-66
2022/10/19 03:46:36;;;;;;;13.65;9.88;;;;;;;10.69;100.00;97431.69;4982899;28;20046;-66
2022/10/19 03:49:02;;;;;;;22.38;12.13;;;;;;;10.70;100.00;97435.25;4983302;28;20046;-67
2022/10/19 03:51:29;;;;;;;16.20;12.02;;;;;;;10.65;100.00;97438.25;4974319;28;20054;-67
2022/10/19 03:53:58;;;;;;;17.52;12.10;;;;;;;10.66;100.00;97442.56;4977659;28;20137;-67
2022/10/19 03:56:25;;;;;;;23.35;12.88;;;;;;;10.59;100.00;97437.69;4976050;28;20684;-67
2022/10/19 03:58:53;;;;;;;19.63;11.48;;;;;;;10.54;100.00;97429.72;4981716;28;20455;-67
2022/10/19 04:01:32;;;;;;;20.25;13.50;;;;;;;10.62;100.00;97439.72;4978184;28;20503;-67
2022/10/19 04:04:00;;;;;;;100.22;15.77;;;;;;;9.91;100.00;97443.88;4983646;28;20053;-66
2022/10/19 04:06:34;;;;;;;19.35;13.13;;;;;;;10.18;100.00;97447.81;4981528;28;20116;-66
2022/10/19 04:09:01;;;;;;;25.77;15.40;;;;;;;10.22;100.00;97453.41;4984569;28;20117;-66
2022/10/19 04:11:29;;;;;;;22.88;13.57;;;;;;;9.86;100.00;97444.91;4975137;28;20046;-66
2022/10/19 04:13:56;;;;;;;23.75;15.95;;;;;;;9.95;100.00;97445.56;4981176;28;20118;-65
2022/10/19 04:16:23;;;;;;;30.50;18.60;;;;;;;9.92;100.00;97454.50;4976772;28;20054;-66
2022/10/19 04:18:49;;;;;;;26.85;17.40;;;;;;;10.03;100.00;97446.59;4982134;28;20546;-66
2022/10/19 04:21:25;;;;;;;30.30;17.65;;;;;;;9.93;100.00;97445.13;4976564;28;20125;-66
2022/10/19 04:23:56;;;;;;;28.25;17.95;;;;;;;9.98;100.00;97441.38;4983121;28;20042;-67
2022/10/19 04:26:21;;;;;;;40.03;20.75;;;;;;;10.06;100.00;97440.41;4980924;28;20651;-65
2022/10/19 04:28:47;;;;;;;49.25;22.17;;;;;;;10.14;100.00;97438.72;4980731;28;20047;-66
2022/10/19 04:31:12;;;;;;;141.73;24.58;;;;;;;10.03;100.00;97440.31;4976779;28;20128;-65
2022/10/19 04:33:38;;;;;;;77.30;23.48;;;;;;;9.88;100.00;97441.81;4980910;28;20103;-67
2022/10/19 04:36:07;;;;;;;129.80;23.30;;;;;;;9.67;100.00;97439.22;4966974;28;20373;-65
2022/10/19 04:38:33;;;;;;;115.70;27.52;;;;;;;9.72;100.00;97431.59;4981445;28;20050;-64
2022/10/19 04:41:07;;;;;;;145.77;31.50;;;;;;;9.83;100.00;97428.38;4984951;28;20080;-65
2022/10/19 04:43:33;;;;;;;118.63;36.55;;;;;;;10.07;100.00;97438.50;4981908;28;20050;-66
2022/10/19 04:46:04;;;;;;;122.15;35.35;;;;;;;10.19;100.00;97433.00;4982399;28;20038;-67
2022/10/19 04:48:30;;;;;;;188.18;39.38;;;;;;;10.32;100.00;97429.13;4985264;28;20042;-66
2022/10/19 04:50:55;;;;;;;133.85;37.60;;;;;;;10.36;100.00;97420.22;4989712;28;20122;-66
2022/10/19 04:53:21;;;;;;;68.93;30.90;;;;;;;10.38;100.00;97415.19;4990731;28;20046;-66
2022/10/19 04:55:46;;;;;;;155.80;34.70;;;;;;;10.39;100.00;97405.81;4989090;28;20069;-66
2022/10/19 04:58:12;;;;;;;169.00;35.45;;;;;;;10.38;100.00;97402.28;4978596;28;20039;-67
2022/10/19 05:00:38;;;;;;;62.63;30.10;;;;;;;10.43;100.00;97412.19;4981360;28;20034;-66
2022/10/19 05:03:03;;;;;;;83.28;29.92;;;;;;;10.39;100.00;97411.28;4977946;28;20097;-66
2022/10/19 05:05:30;;;;;;;80.00;26.70;;;;;;;10.21;100.00;97417.03;4979068;28;20428;-66
2022/10/19 05:07:56;;;;;;;52.88;24.48;;;;;;;10.14;100.00;97420.34;4979154;28;20403;-66
2022/10/19 05:10:21;;;;;;;50.22;25.42;;;;;;;10.19;100.00;97423.97;4973186;28;20055;-66
2022/10/19 05:12:47;;;;;;;51.22;25.35;;;;;;;10.16;100.00;97417.25;4975880;28;20070;-66
2022/10/19 05:15:13;;;;;;;47.30;24.85;;;;;;;10.15;100.00;97415.66;4976959;28;20042;-65
2022/10/19 05:17:38;;;;;;;61.17;25.73;;;;;;;10.13;100.00;97410.53;4979502;28;20043;-65
2022/10/19 05:20:04;;;;;;;62.63;25.67;;;;;;;10.06;100.00;97402.09;4979103;28;20034;-65
2022/10/19 05:22:29;;;;;;;49.70;25.75;;;;;;;10.02;100.00;97403.94;4983371;28;20422;-65
2022/10/19 05:24:55;;;;;;;40.28;23.45;;;;;;;10.05;100.00;97403.25;4983111;28;20046;-66
2022/10/19 05:27:21;;;;;;;34.10;22.45;;;;;;;10.09;100.00;97404.16;4977545;28;20404;-66
2022/10/19 05:29:46;;;;;;;40.30;22.08;;;;;;;10.09;100.00;97406.91;4980756;28;20052;-66
2022/10/19 05:32:12;;;;;;;32.33;20.17;;;;;;;10.07;100.00;97389.25;4976040;28;20051;-66
2022/10/19 05:34:37;;;;;;;29.27;18.80;;;;;;;10.09;100.00;97392.41;4984975;28;20500;-66
2022/10/19 05:37:02;;;;;;;29.17;18.67;;;;;;;10.04;100.00;97396.19;4980459;28;20053;-66
2022/10/19 05:39:28;;;;;;;31.52;18.13;;;;;;;9.93;100.00;97395.88;4984231;28;20104;-66
2022/10/19 05:41:54;;;;;;;30.52;16.48;;;;;;;9.90;100.00;97385.63;4966988;28;20038;-67
2022/10/19 05:44:21;;;;;;;31.58;17.25;;;;;;;9.86;100.00;97389.38;4982014;28;20112;-67
2022/10/19 05:46:48;;;;;;;30.90;18.63;;;;;;;9.80;100.00;97385.31;4982847;28;20038;-67
2022/10/19 05:49:15;;;;;;;32.45;19.65;;;;;;;9.70;100.00;97383.81;4980289;28;20133;-67
2022/10/19 05:51:40;;;;;;;28.02;17.88;;;;;;;9.74;100.00;97390.19;4987242;28;20061;-66
2022/10/19 05:54:06;;;;;;;23.77;16.90;;;;;;;9.79;100.00;97398.16;4979294;28;20062;-66
2022/10/19 05:56:32;;;;;;;23.83;15.32;;;;;;;9.82;100.00;97393.97;4984689;28;20046;-67
2022/10/19 05:59:00;;;;;;;23.52;15.68;;;;;;;9.72;100.00;97397.94;4986595;28;20062;-67
2022/10/19 06:01:27;;;;;;;22.30;16.02;;;;;;;9.77;100.00;97395.78;4978771;28;20046;-67
2022/10/19 06:03:55;;;;;;;26.02;15.68;;;;;;;9.78;100.00;97396.59;4984569;28;20042;-67
2022/10/19 06:06:22;;;;;;;19.77;13.93;;;;;;;9.91;100.00;97389.94;4977827;28;20092;-66
2022/10/19 06:08:48;;;;;;;34.60;16.48;;;;;;;10.01;100.00;97394.16;4978740;28;20083;-67
2022/10/19 06:11:16;;;;;;;24.85;15.13;;;;;;;10.03;100.00;97399.25;4976305;28;20121;-67
2022/10/19 06:13:43;;;;;;;27.77;15.20;;;;;;;10.19;100.00;97391.13;4985605;28;20042;-67
2022/10/19 06:16:10;;;;;;;24.67;16.08;;;;;;;10.31;100.00;97386.44;4976237;28;20044;-66
2022/10/19 06:18:36;;;;;;;23.67;15.38;;;;;;;10.39;100.00;97389.38;4981257;28;20533;-67
2022/10/19 06:21:24;;;;;;;23.38;13.80;;;;;;;10.49;100.00;97395.16;4981591;28;20133;-65
2022/10/19 06:23:55;;;;;;;23.67;13.55;;;;;;;10.68;100.00;97407.41;4982414;28;20074;-65
2022/10/19 06:26:22;;;;;;;20.08;14.25;;;;;;;10.74;100.00;97407.94;4976903;28;20042;-66
2022/10/19 06:28:48;;;;;;;19.52;14.65;;;;;;;10.79;100.00;97404.97;4984412;28;20515;-66
2022/10/19 06:31:14;;;;;;;18.13;13.10;;;;;;;10.93;100.00;97394.38;4975780;28;20093;-65
2022/10/19 06:33:41;;;;;;;22.05;15.85;;;;;;;11.07;100.00;97394.75;4982879;28;20046;-65
2022/10/19 06:36:09;;;;;;;30.67;19.73;;;;;;;11.44;100.00;97404.66;4978612;28;20089;-65
2022/10/19 06:38:35;;;;;;;31.35;20.42;;;;;;;11.89;100.00;97408.03;4979210;28;20046;-65
2022/10/19 06:41:00;;;;;;;24.33;16.42;;;;;;;12.29;100.00;97412.47;4980522;28;20064;-67
2022/10/19 06:43:26;;;;;;;29.25;19.05;;;;;;;12.01;100.00;97410.66;4979416;28;20110;-66
2022/10/19 06:45:52;;;;;;;28.70;19.42;;;;;;;12.03;100.00;97424.88;4978242;28;20400;-66
2022/10/19 06:48:17;;;;;;;35.00;21.23;;;;;;;11.89;100.00;97422.56;4979074;28;20050;-65
2022/10/19 06:50:43;;;;;;;25.45;14.00;;;;;;;11.89;100.00;97425.28;4984620;28;20435;-67
2022/10/19 06:53:08;;;;;;;19.33;14.05;;;;;;;12.15;100.00;97418.44;4977614;28;20104;-67
2022/10/19 06:55:35;;;;;;;17.27;12.77;;;;;;;12.16;100.00;97429.06;4975522;28;20137;-68
2022/10/19 06:58:00;;;;;;;19.60;12.07;;;;;;;12.29;100.00;97426.97;4984105;28;20042;-66
2022/10/19 07:00:27;;;;;;;23.98;13.43;;;;;;;12.26;100.00;97443.38;4978056;28;20057;-66
2022/10/19 07:02:53;;;;;;;18.17;13.15;;;;;;;12.24;100.00;97439.06;4983553;28;20042;-66
2022/10/19 07:05:19;;;;;;;21.15;14.75;;;;;;;12.45;100.00;97443.41;4978017;28;20771;-65
2022/10/19 07:07:44;;;;;;;21.90;13.50;;;;;;;12.30;100.00;97439.56;4979973;28;20526;-66
2022/10/19 07:10:10;;;;;;;21.55;12.40;;;;;;;12.31;100.00;97446.63;4978893;28;20050;-66
2022/10/19 07:12:36;;;;;;;22.92;11.95;;;;;;;12.28;100.00;97441.88;4985601;28;20126;-68
2022/10/19 07:15:02;;;;;;;15.95;10.27;;;;;;;12.20;100.00;97445.63;4984977;28;20070;-67
2022/10/19 07:17:28;;;;;;;20.25;11.73;;;;;;;12.29;100.00;97443.47;4979937;28;20042;-67
2022/10/19 07:19:54;;;;;;;16.73;10.10;;;;;;;12.40;100.00;97443.69;4983487;28;20611;-67
2022/10/19 07:22:19;;;;;;;29.90;11.93;;;;;;;12.35;100.00;97441.22;4973742;28;20141;-68
2022/10/19 07:24:45;;;;;;;20.45;11.95;;;;;;;12.50;100.00;97440.38;4983876;28;20042;-67
2022/10/19 07:27:10;;;;;;;27.13;11.75;;;;;;;12.43;100.00;97440.22;4976753;28;20400;-67
2022/10/19 07:29:36;;;;;;;16.63;11.10;;;;;;;12.55;100.00;97442.03;4984176;28;20038;-67
2022/10/19 07:32:01;;;;;;;15.68;11.20;;;;;;;12.87;100.00;97442.66;4989097;28;20042;-66
2022/10/19 07:34:26;;;;;;;13.77;10.85;;;;;;;13.07;100.00;97439.88;4982498;28;20046;-66
2022/10/19 07:36:53;;;;;;;16.67;11.88;;;;;;;13.36;100.00;97433.78;4980655;28;20526;-67
2022/10/19 07:39:19;;;;;;;14.85;10.95;;;;;;;13.25;100.00;97429.19;4973688;28;20455;-67
2022/10/19 07:41:46;;;;;;;17.50;12.57;;;;;;;13.38;100.00;97433.41;4985298;28;20042;-67
2022/10/19 07:44:14;;;;;;;22.95;15.00;;;;;;;12.87;100.00;97422.63;4980057;28;20042;-66
2022/10/19 07:46:39;;;;;;;20.23;15.23;;;;;;;12.68;100.00;97423.47;4985772;28;20039;-67
2022/10/19 07:49:11;;;;;;;22.33;15.68;;;;;;;12.84;100.00;97429.66;4980696;28;20737;-66
2022/10/19 07:51:37;;;;;;;25.48;15.60;;;;;;;13.36;100.00;97431.03;4968651;28;20491;-67
2022/10/19 07:54:03;;;;;;;28.50;16.33;;;;;;;13.57;100.00;97424.28;4977339;28;20042;-66
2022/10/19 07:56:29;;;;;;;24.77;16.70;;;;;;;13.38;100.00;97427.91;4982873;28;20042;-67
2022/10/19 07:58:57;;;;;;;25.50;17.00;;;;;;;13.45;100.00;97419.78;4985207;28;20174;-66
2022/10/19 08:01:25;;;;;;;32.47;17.73;;;;;;;13.61;100.00;97427.09;4980892;28;20046;-66
2022/10/19 08:03:53;;;;;;;29.85;17.95;;;;;;;13.63;100.00;97425.56;4981613;28;20467;-67
2022/10/19 08:06:19;;;;;;;29.08;17.30;;;;;;;13.48;100.00;97421.75;4976779;28;20050;-67
2022/10/19 08:08:46;;;;;;;27.48;16.70;;;;;;;13.64;100.00;97426.34;4982106;28;20043;-67
2022/10/19 08:11:35;;;;;;;26.95;17.60;;;;;;;13.66;100.00;97424.03;4975624;28;20042;-67
2022/10/19 08:14:03;;;;;;;29.83;17.05;;;;;;;14.10;100.00;97432.56;4982258;28;20454;-67
2022/10/19 08:16:40;;;;;;;26.80;16.10;;;;;;;14.17;100.00;97425.53;4980574;28;20038;-67
2022/10/19 08:19:13;;;;;;;27.33;17.15;;;;;;;13.91;100.00;97427.16;4975152;28;20121;-67
2022/10/19 08:21:43;;;;;;;26.38;16.77;;;;;;;14.11;100.00;97430.59;4977045;28;20046;-67
2022/10/19 08:24:10;;;;;;;27.13;17.35;;;;;;;14.42;100.00;97428.63;4976727;28;20098;-67
2022/10/19 08:26:37;;;;;;;27.58;17.05;;;;;;;14.27;100.00;97419.41;4981680;28;20042;-67
2022/10/19 08:29:04;;;;;;;22.83;15.77;;;;;;;14.60;100.00;97426.91;4979700;28;20507;-66
2022/10/19 08:31:30;;;;;;;25.08;15.70;;;;;;;14.83;100.00;97424.03;4982395;28;20050;-67
2022/10/19 08:33:56;;;;;;;23.45;15.80;;;;;;;15.17;100.00;97424.00;4977128;28;20038;-67
2022/10/19 08:36:22;;;;;;;24.90;14.73;;;;;;;14.84;100.00;97425.63;4958344;28;22305;-66
2022/10/19 08:38:49;;;;;;;21.70;14.65;;;;;;;15.24;100.00;97417.75;4975293;28;20046;-67
2022/10/19 08:41:39;;;;;;;22.92;14.63;;;;;;;15.28;100.00;97419.38;4977069;28;20141;-66
2022/10/19 08:44:23;;;;;;;19.08;13.60;;;;;;;15.40;100.00;97412.78;4977915;28;20121;-66
2022/10/19 08:47:13;;;;;;;18.63;12.73;;;;;;;15.42;100.00;97415.16;4982814;28;20196;-66
2022/10/19 08:49:40;;;;;;;25.23;14.68;;;;;;;15.21;100.00;97422.06;4982786;28;20542;-67
2022/10/19 08:52:18;;;;;;;25.92;13.90;;;;;;;14.95;100.00;97411.19;4957802;28;20042;-65
2022/10/19 08:54:53;;;;;;;23.10;14.45;;;;;;;15.27;100.00;97417.00;4973939;28;20037;-66
2022/10/19 08:57:28;;;;;;;21.25;12.63;;;;;;;15.69;100.00;97413.03;4979263;28;20042;-67
2022/10/19 09:00:01;;;;;;;20.30;12.88;;;;;;;16.07;100.00;97412.91;4986006;28;20105;-68
2022/10/19 09:02:38;;;;;;;19.98;12.15;;;;;;;15.53;100.00;97416.03;4976644;28;20055;-66
2022/10/19 09:05:15;;;;;;;21.58;12.45;;;;;;;15.99;100.00;97410.09;4967519;28;20052;-67
2022/10/19 09:07:44;;;;;;;19.95;11.90;;;;;;;15.69;100.00;97401.97;4979970;28;20082;-66
2022/10/19 09:10:13;;;;;;;21.02;12.10;;;;;;;15.76;100.00;97404.03;4976913;28;20482;-66
2022/10/19 09:12:52;;;;;;;21.27;11.77;;;;;;;16.19;100.00;97387.72;4982109;28;20448;-66
2022/10/19 09:15:24;;;;;;;19.75;12.10;;;;;;;16.37;100.00;97393.34;4977930;28;20506;-67
2022/10/19 09:17:49;;;;;;;16.85;10.23;;;;;;;17.46;100.00;97397.97;4981010;28;20074;-66
2022/10/19 09:20:21;;;;;;;15.75;9.95;;;;;;;17.93;100.00;97395.97;4976756;28;20064;-67
2022/10/19 09:23:00;;;;;;;13.65;9.00;;;;;;;19.57;100.00;97388.06;4976075;28;20041;-67
2022/10/19 09:25:28;;;;;;;;;;;;;;;18.19;100.00;97397.50;4974076;28;20111;-68
2022/10/19 09:28:20;;;;;;;12.90;8.93;;;;;;;17.66;100.00;97392.81;4982113;28;19921;-67
2022/10/19 09:30:50;;;;;;;19.27;9.02;;;;;;;17.43;100.00;97390.44;4951119;28;20054;-66
2022/10/19 09:33:25;;;;;;;13.60;7.85;;;;;;;17.39;100.00;97396.78;4978465;28;20557;-67
2022/10/19 09:35:54;;;;;;;12.43;9.35;;;;;;;17.19;100.00;97390.81;4977951;28;20042;-66
2022/10/19 09:38:24;;;;;;;14.88;9.07;;;;;;;16.67;100.00;97383.94;4976587;28;20096;-66
2022/10/19 09:40:50;;;;;;;13.65;8.82;;;;;;;17.63;100.00;97388.88;4982802;28;20332;-66
2022/10/19 09:43:20;;;;;;;14.35;8.90;;;;;;;18.67;100.00;97385.03;4978138;28;20046;-66
2022/10/19 09:46:10;;;;;;;13.82;8.93;;;;;;;17.28;100.00;97381.34;4979700;28;20042;-65
2022/10/19 09:48:44;;;;;;;;;;;;;;;17.02;100.00;97388.81;4980729;28;20058;-67
2022/10/19 09:51:12;;;;;;;17.50;8.60;;;;;;;17.86;100.00;97387.66;4983103;28;19917;-65
2022/10/19 09:53:46;;;;;;;13.40;10.10;;;;;;;17.74;100.00;97381.34;4987160;28;20046;-66
2022/10/19 09:56:23;;;;;;;13.65;9.35;;;;;;;17.75;100.00;97382.94;4975173;28;20051;-66
2022/10/19 09:58:51;;;;;;;16.55;9.60;;;;;;;17.17;100.00;97379.34;4981941;28;20038;-66
2022/10/19 10:01:38;;;;;;;17.83;10.65;;;;;;;17.05;100.00;97376.16;4976988;28;20141;-66
2022/10/19 10:04:09;;;;;;;20.02;10.88;;;;;;;16.99;100.00;97381.31;4979129;28;20097;-65
2022/10/19 10:06:37;;;;;;;18.70;9.77;;;;;;;17.38;100.00;97375.03;4983737;28;20040;-66
2022/10/19 10:09:04;;;;;;;21.23;10.20;;;;;;;17.22;100.00;97369.88;4960910;28;20451;-67
2022/10/19 10:11:32;;;;;;;16.08;9.63;;;;;;;17.74;100.00;97375.00;4979346;28;20120;-65
2022/10/19 10:14:05;;;;;;;18.38;9.85;;;;;;;18.63;100.00;97375.97;4981604;28;20133;-66
2022/10/19 10:16:34;;;;;;;15.30;8.98;;;;;;;17.86;100.00;97359.97;4989082;28;20031;-66
2022/10/19 10:19:04;;;;;;;;;;;;;;;17.94;100.00;97362.31;4994204;28;20061;-66
2022/10/19 10:21:47;;;;;;;20.50;9.57;;;;;;;18.07;100.00;97368.22;4992375;28;20397;-66
2022/10/19 10:24:12;;;;;;;20.20;9.93;;;;;;;17.85;100.00;97363.91;4981346;28;20042;-66
2022/10/19 10:26:40;;;;;;;19.23;9.55;;;;;;;18.06;100.00;97363.09;4984308;28;20395;-65
2022/10/19 10:29:36;;;;;;;15.07;9.02;;;;;;;18.54;100.00;97359.75;4981624;28;20054;-66
2022/10/19 10:32:04;;;;;;;16.77;9.85;;;;;;;17.46;100.00;97350.88;4975075;28;20043;-66
2022/10/19 10:34:44;;;;;;;15.60;9.10;;;;;;;17.34;100.00;97360.38;4961671;28;20248;-66
2022/10/19 10:37:16;;;;;;;;;;;;;;;16.10;100.00;97345.81;4968319;28;20255;-66
2022/10/19 10:39:43;;;;;;;19.05;10.88;;;;;;;16.16;100.00;97358.88;4979059;28;19962;-66
2022/10/19 10:42:15;;;;;;;16.10;10.93;;;;;;;16.55;100.00;97354.69;4960116;28;20043;-65
2022/10/19 10:44:48;;;;;;;16.23;10.00;;;;;;;16.27;100.00;97345.09;4965927;28;20047;-67
2022/10/19 10:47:16;;;;;;;19.73;10.48;;;;;;;16.65;100.00;97345.63;4960246;28;20042;-67
2022/10/19 10:49:42;;;;;;;14.65;9.77;;;;;;;16.71;100.00;97335.78;4968562;28;20046;-67
2022/10/19 10:52:14;;;;;;;17.55;10.57;;;;;;;16.62;100.00;97333.38;4961679;28;20500;-67
2022/10/19 10:54:39;;;;;;;14.63;9.43;;;;;;;16.66;100.00;97324.31;4964198;28;20796;-67
2022/10/19 10:57:15;;;;;;;13.98;9.60;;;;;;;17.21;100.00;97329.53;4957266;28;20057;-65
2022/10/19 10:59:44;;;;;;;15.02;9.88;;;;;;;17.09;100.00;97321.63;4942136;28;20700;-65
2022/10/19 11:02:31;;;;;;;15.73;9.65;;;;;;;17.14;100.00;97322.03;4939474;28;20051;-66
2022/10/19 11:05:16;;;;;;;15.45;9.27;;;;;;;17.29;100.00;97320.03;4968763;28;20070;-66
2022/10/19 11:07:45;;;;;;;18.15;10.10;;;;;;;16.91;100.00;97310.56;4982902;28;20045;-66
2022/10/19 11:10:21;;;;;;;19.80;9.50;;;;;;;16.65;100.00;97317.19;4979080;28;20050;-66
2022/10/19 11:12:55;;;;;;;16.00;10.00;;;;;;;17.02;100.00;97313.31;4984465;28;20042;-67
2022/10/19 11:15:36;;;;;;;16.60;8.75;;;;;;;18.19;100.00;97314.34;4979565;28;20085;-68
2022/10/19 11:18:15;;;;;;;18.30;8.25;;;;;;;18.95;100.00;97316.75;4982083;28;20116;-66
2022/10/19 11:20:48;;;;;;;18.25;8.13;;;;;;;19.19;100.00;97312.97;4967705;28;20047;-65
2022/10/19 11:23:19;;;;;;;13.55;8.02;;;;;;;20.41;100.00;97313.72;4979422;28;20045;-66
2022/10/19 11:25:48;;;;;;;11.82;7.40;;;;;;;21.24;94.54;97307.00;4982463;28;20432;-65